sensor_id;sensor_type;location;lat;lon;timestamp;P1;durP1;ratioP1;P2;durP2;ratioP2
62861;SDS011;48953;53.110;5.592;2022-10-16T00:00:32;6.88;;;1.38;;
62861;SDS011;48953;53.110;5.592;2022-10-16T00:02:59;4.97;;;1.02;;
62861;SDS011;48953;53.110;5.592;2022-10-16T00:05:25;2.95;;;0.85;;
62861;SDS011;48953;53.110;5.592;2022-10-16T00:07:50;5.40;;;1.45;;
62861;SDS011;48953;53.110;5.592;2022-10-16T00:10:16;4.82;;;1.30;;
62861;SDS011;48953;53.110;5.592;2022-10-16T00:12:42;7.63;;;1.58;;
62861;SDS011;48953;53.110;5.592;2022-10-16T00:15:07;5.80;;;1.20;;
62861;SDS011;48953;53.110;5.592;2022-10-16T00:17:33;7.47;;;1.50;;
62861;SDS011;48953;53.110;5.592;2022-10-16T00:19:59;7.75;;;1.30;;
62861;SDS011;48953;53.110;5.592;2022-10-16T00:22:24;3.28;;;1.13;;
62861;SDS011;48953;53.110;5.592;2022-10-16T00:24:50;6.05;;;1.23;;
62861;SDS011;48953;53.110;5.592;2022-10-16T00:27:16;7.85;;;1.10;;
62861;SDS011;48953;53.110;5.592;2022-10-16T00:29:42;6.53;;;1.70;;
62861;SDS011;48953;53.110;5.592;2022-10-16T00:32:08;4.60;;;1.25;;
62861;SDS011;48953;53.110;5.592;2022-10-16T00:34:34;5.93;;;1.02;;
62861;SDS011;48953;53.110;5.592;2022-10-16T00:37:00;4.30;;;1.23;;
62861;SDS011;48953;53.110;5.592;2022-10-16T00:42:32;3.25;;;0.88;;
62861;SDS011;48953;53.110;5.592;2022-10-16T00:44:58;4.13;;;1.10;;
62861;SDS011;48953;53.110;5.592;2022-10-16T00:47:37;2.42;;;1.00;;
62861;SDS011;48953;53.110;5.592;2022-10-16T00:52:37;3.72;;;0.82;;
62861;SDS011;48953;53.110;5.592;2022-10-16T00:55:07;4.03;;;1.00;;
62861;SDS011;48953;53.110;5.592;2022-10-16T00:57:34;4.85;;;1.50;;
62861;SDS011;48953;53.110;5.592;2022-10-16T01:00:00;2.25;;;0.80;;
62861;SDS011;48953;53.110;5.592;2022-10-16T01:11:44;4.28;;;1.33;;
62861;SDS011;48953;53.110;5.592;2022-10-16T01:14:40;3.47;;;0.98;;
62861;SDS011;48953;53.110;5.592;2022-10-16T01:17:15;3.55;;;1.40;;
62861;SDS011;48953;53.110;5.592;2022-10-16T01:28:18;2.63;;;1.27;;
62861;SDS011;48953;53.110;5.592;2022-10-16T01:30:46;3.88;;;1.08;;
62861;SDS011;48953;53.110;5.592;2022-10-16T01:33:17;2.80;;;1.25;;
62861;SDS011;48953;53.110;5.592;2022-10-16T01:35:49;4.90;;;0.90;;
62861;SDS011;48953;53.110;5.592;2022-10-16T01:38:24;3.67;;;1.15;;
62861;SDS011;48953;53.110;5.592;2022-10-16T01:40:59;3.50;;;0.90;;
62861;SDS011;48953;53.110;5.592;2022-10-16T01:43:33;4.05;;;1.00;;
62861;SDS011;48953;53.110;5.592;2022-10-16T01:46:02;4.10;;;0.95;;
62861;SDS011;48953;53.110;5.592;2022-10-16T01:48:28;6.05;;;1.10;;
62861;SDS011;48953;53.110;5.592;2022-10-16T01:51:03;2.65;;;1.52;;
62861;SDS011;48953;53.110;5.592;2022-10-16T01:53:33;4.57;;;1.48;;
62861;SDS011;48953;53.110;5.592;2022-10-16T01:56:00;2.90;;;1.30;;
62861;SDS011;48953;53.110;5.592;2022-10-16T01:58:30;2.23;;;1.13;;
62861;SDS011;48953;53.110;5.592;2022-10-16T02:01:01;3.13;;;1.40;;
62861;SDS011;48953;53.110;5.592;2022-10-16T02:03:28;2.90;;;1.52;;
62861;SDS011;48953;53.110;5.592;2022-10-16T02:05:55;3.45;;;1.80;;
62861;SDS011;48953;53.110;5.592;2022-10-16T02:08:23;2.33;;;1.50;;
62861;SDS011;48953;53.110;5.592;2022-10-16T02:10:53;5.53;;;1.77;;
62861;SDS011;48953;53.110;5.592;2022-10-16T02:14:20;4.97;;;1.70;;
62861;SDS011;48953;53.110;5.592;2022-10-16T02:16:32;4.30;;;2.00;;
62861;SDS011;48953;53.110;5.592;2022-10-16T02:19:06;5.05;;;1.92;;
62861;SDS011;48953;53.110;5.592;2022-10-16T02:21:34;6.00;;;1.98;;
62861;SDS011;48953;53.110;5.592;2022-10-16T02:29:39;5.03;;;1.90;;
62861;SDS011;48953;53.110;5.592;2022-10-16T02:32:15;4.85;;;2.00;;
62861;SDS011;48953;53.110;5.592;2022-10-16T02:34:44;2.37;;;1.77;;
62861;SDS011;48953;53.110;5.592;2022-10-16T02:37:12;5.70;;;2.28;;
62861;SDS011;48953;53.110;5.592;2022-10-16T02:39:38;4.40;;;2.22;;
62861;SDS011;48953;53.110;5.592;2022-10-16T02:42:09;5.15;;;2.30;;
62861;SDS011;48953;53.110;5.592;2022-10-16T02:44:36;5.38;;;2.50;;
62861;SDS011;48953;53.110;5.592;2022-10-16T02:47:02;3.78;;;1.90;;
62861;SDS011;48953;53.110;5.592;2022-10-16T02:49:27;5.53;;;2.28;;
62861;SDS011;48953;53.110;5.592;2022-10-16T02:51:53;4.40;;;2.05;;
62861;SDS011;48953;53.110;5.592;2022-10-16T02:54:18;4.03;;;2.00;;
62861;SDS011;48953;53.110;5.592;2022-10-16T02:56:44;3.63;;;2.10;;
62861;SDS011;48953;53.110;5.592;2022-10-16T02:59:09;3.72;;;1.80;;
62861;SDS011;48953;53.110;5.592;2022-10-16T03:01:35;5.10;;;2.28;;
62861;SDS011;48953;53.110;5.592;2022-10-16T03:04:01;3.97;;;1.92;;
62861;SDS011;48953;53.110;5.592;2022-10-16T03:06:26;5.43;;;1.60;;
62861;SDS011;48953;53.110;5.592;2022-10-16T03:08:52;4.07;;;1.67;;
62861;SDS011;48953;53.110;5.592;2022-10-16T03:11:17;5.78;;;2.10;;
62861;SDS011;48953;53.110;5.592;2022-10-16T03:13:43;5.50;;;2.25;;
62861;SDS011;48953;53.110;5.592;2022-10-16T03:16:08;5.90;;;1.80;;
62861;SDS011;48953;53.110;5.592;2022-10-16T03:18:34;3.17;;;1.67;;
62861;SDS011;48953;53.110;5.592;2022-10-16T03:20:59;3.50;;;1.92;;
62861;SDS011;48953;53.110;5.592;2022-10-16T03:23:25;3.50;;;1.80;;
62861;SDS011;48953;53.110;5.592;2022-10-16T03:25:51;6.30;;;2.00;;
62861;SDS011;48953;53.110;5.592;2022-10-16T03:28:17;3.10;;;1.50;;
62861;SDS011;48953;53.110;5.592;2022-10-16T03:30:43;4.88;;;1.70;;
62861;SDS011;48953;53.110;5.592;2022-10-16T03:33:09;3.95;;;1.98;;
62861;SDS011;48953;53.110;5.592;2022-10-16T03:35:34;2.28;;;1.77;;
62861;SDS011;48953;53.110;5.592;2022-10-16T03:38:00;5.05;;;1.77;;
62861;SDS011;48953;53.110;5.592;2022-10-16T03:40:26;4.93;;;1.65;;
62861;SDS011;48953;53.110;5.592;2022-10-16T03:42:52;5.47;;;1.50;;
62861;SDS011;48953;53.110;5.592;2022-10-16T03:45:20;2.67;;;1.50;;
62861;SDS011;48953;53.110;5.592;2022-10-16T03:47:45;5.43;;;1.80;;
62861;SDS011;48953;53.110;5.592;2022-10-16T03:50:12;3.17;;;1.25;;
62861;SDS011;48953;53.110;5.592;2022-10-16T03:52:38;5.57;;;1.60;;
62861;SDS011;48953;53.110;5.592;2022-10-16T03:55:03;2.67;;;1.60;;
62861;SDS011;48953;53.110;5.592;2022-10-16T03:57:29;3.63;;;1.20;;
62861;SDS011;48953;53.110;5.592;2022-10-16T03:59:55;4.95;;;1.50;;
62861;SDS011;48953;53.110;5.592;2022-10-16T04:02:20;5.22;;;1.50;;
62861;SDS011;48953;53.110;5.592;2022-10-16T04:04:46;2.80;;;1.40;;
62861;SDS011;48953;53.110;5.592;2022-10-16T04:07:11;5.57;;;1.42;;
62861;SDS011;48953;53.110;5.592;2022-10-16T04:09:37;3.00;;;1.17;;
62861;SDS011;48953;53.110;5.592;2022-10-16T04:12:02;4.85;;;1.60;;
62861;SDS011;48953;53.110;5.592;2022-10-16T04:14:28;6.45;;;1.90;;
62861;SDS011;48953;53.110;5.592;2022-10-16T04:16:53;6.15;;;2.40;;
62861;SDS011;48953;53.110;5.592;2022-10-16T04:19:19;3.92;;;2.00;;
62861;SDS011;48953;53.110;5.592;2022-10-16T04:21:44;4.43;;;1.63;;
62861;SDS011;48953;53.110;5.592;2022-10-16T04:27:26;7.68;;;1.40;;
62861;SDS011;48953;53.110;5.592;2022-10-16T04:29:53;3.30;;;1.52;;
62861;SDS011;48953;53.110;5.592;2022-10-16T04:32:18;4.70;;;1.40;;
62861;SDS011;48953;53.110;5.592;2022-10-16T04:34:44;5.10;;;1.52;;
62861;SDS011;48953;53.110;5.592;2022-10-16T04:37:09;3.38;;;1.33;;
62861;SDS011;48953;53.110;5.592;2022-10-16T04:39:35;6.25;;;1.50;;
62861;SDS011;48953;53.110;5.592;2022-10-16T04:42:01;5.28;;;1.30;;
62861;SDS011;48953;53.110;5.592;2022-10-16T04:44:27;3.17;;;1.13;;
62861;SDS011;48953;53.110;5.592;2022-10-16T04:46:53;5.13;;;1.25;;
62861;SDS011;48953;53.110;5.592;2022-10-16T04:49:18;1.95;;;0.80;;
62861;SDS011;48953;53.110;5.592;2022-10-16T04:51:44;2.13;;;0.98;;
62861;SDS011;48953;53.110;5.592;2022-10-16T04:54:09;4.22;;;0.90;;
62861;SDS011;48953;53.110;5.592;2022-10-16T04:56:35;2.55;;;1.10;;
62861;SDS011;48953;53.110;5.592;2022-10-16T04:59:08;3.70;;;1.00;;
62861;SDS011;48953;53.110;5.592;2022-10-16T05:01:34;2.53;;;1.00;;
62861;SDS011;48953;53.110;5.592;2022-10-16T05:03:59;3.40;;;1.30;;
62861;SDS011;48953;53.110;5.592;2022-10-16T05:06:25;4.57;;;1.27;;
62861;SDS011;48953;53.110;5.592;2022-10-16T05:08:51;3.28;;;1.50;;
62861;SDS011;48953;53.110;5.592;2022-10-16T05:11:17;5.38;;;1.63;;
62861;SDS011;48953;53.110;5.592;2022-10-16T05:13:42;2.28;;;1.85;;
62861;SDS011;48953;53.110;5.592;2022-10-16T05:16:08;3.42;;;1.60;;
62861;SDS011;48953;53.110;5.592;2022-10-16T05:18:33;4.00;;;1.60;;
62861;SDS011;48953;53.110;5.592;2022-10-16T05:27:27;3.60;;;2.70;;
62861;SDS011;48953;53.110;5.592;2022-10-16T05:29:53;4.95;;;2.00;;
62861;SDS011;48953;53.110;5.592;2022-10-16T05:32:19;7.60;;;2.80;;
62861;SDS011;48953;53.110;5.592;2022-10-16T05:34:44;4.72;;;2.25;;
62861;SDS011;48953;53.110;5.592;2022-10-16T05:37:11;4.45;;;1.98;;
62861;SDS011;48953;53.110;5.592;2022-10-16T05:39:37;4.22;;;2.40;;
62861;SDS011;48953;53.110;5.592;2022-10-16T05:42:04;3.35;;;2.28;;
62861;SDS011;48953;53.110;5.592;2022-10-16T05:44:30;3.70;;;1.98;;
62861;SDS011;48953;53.110;5.592;2022-10-16T05:46:56;5.80;;;2.50;;
62861;SDS011;48953;53.110;5.592;2022-10-16T05:49:21;6.47;;;2.05;;
62861;SDS011;48953;53.110;5.592;2022-10-16T05:51:47;5.45;;;1.80;;
62861;SDS011;48953;53.110;5.592;2022-10-16T05:54:13;6.20;;;1.90;;
62861;SDS011;48953;53.110;5.592;2022-10-16T05:56:38;5.18;;;2.15;;
62861;SDS011;48953;53.110;5.592;2022-10-16T05:59:04;4.15;;;2.10;;
62861;SDS011;48953;53.110;5.592;2022-10-16T06:01:30;4.70;;;2.13;;
62861;SDS011;48953;53.110;5.592;2022-10-16T06:03:56;4.93;;;2.55;;
62861;SDS011;48953;53.110;5.592;2022-10-16T06:06:22;5.50;;;2.13;;
62861;SDS011;48953;53.110;5.592;2022-10-16T06:08:51;3.25;;;2.00;;
62861;SDS011;48953;53.110;5.592;2022-10-16T06:11:18;7.22;;;2.15;;
62861;SDS011;48953;53.110;5.592;2022-10-16T06:13:48;5.00;;;1.90;;
62861;SDS011;48953;53.110;5.592;2022-10-16T06:16:18;6.65;;;2.42;;
62861;SDS011;48953;53.110;5.592;2022-10-16T06:18:44;9.70;;;2.35;;
62861;SDS011;48953;53.110;5.592;2022-10-16T06:21:11;7.38;;;2.22;;
62861;SDS011;48953;53.110;5.592;2022-10-16T06:23:49;9.70;;;2.38;;
62861;SDS011;48953;53.110;5.592;2022-10-16T06:26:17;2.72;;;1.70;;
62861;SDS011;48953;53.110;5.592;2022-10-16T06:28:44;4.88;;;1.70;;
62861;SDS011;48953;53.110;5.592;2022-10-16T06:31:10;6.03;;;1.65;;
62861;SDS011;48953;53.110;5.592;2022-10-16T06:33:37;4.25;;;1.55;;
62861;SDS011;48953;53.110;5.592;2022-10-16T06:36:10;5.53;;;1.58;;
62861;SDS011;48953;53.110;5.592;2022-10-16T06:38:38;6.60;;;2.63;;
62861;SDS011;48953;53.110;5.592;2022-10-16T06:41:04;6.95;;;1.73;;
62861;SDS011;48953;53.110;5.592;2022-10-16T06:43:31;4.90;;;1.75;;
62861;SDS011;48953;53.110;5.592;2022-10-16T06:45:58;3.88;;;1.63;;
62861;SDS011;48953;53.110;5.592;2022-10-16T06:48:24;8.43;;;1.58;;
62861;SDS011;48953;53.110;5.592;2022-10-16T06:53:27;5.38;;;1.70;;
62861;SDS011;48953;53.110;5.592;2022-10-16T06:55:54;5.35;;;1.77;;
62861;SDS011;48953;53.110;5.592;2022-10-16T06:58:21;7.85;;;2.20;;
62861;SDS011;48953;53.110;5.592;2022-10-16T07:00:47;7.47;;;1.90;;
62861;SDS011;48953;53.110;5.592;2022-10-16T07:03:12;5.45;;;2.00;;
62861;SDS011;48953;53.110;5.592;2022-10-16T07:05:38;5.20;;;1.90;;
62861;SDS011;48953;53.110;5.592;2022-10-16T07:08:04;3.25;;;1.83;;
62861;SDS011;48953;53.110;5.592;2022-10-16T07:10:31;6.40;;;1.90;;
62861;SDS011;48953;53.110;5.592;2022-10-16T07:12:57;6.00;;;1.80;;
62861;SDS011;48953;53.110;5.592;2022-10-16T07:15:22;3.10;;;2.03;;
62861;SDS011;48953;53.110;5.592;2022-10-16T07:17:49;3.80;;;1.80;;
62861;SDS011;48953;53.110;5.592;2022-10-16T07:20:15;3.80;;;1.92;;
62861;SDS011;48953;53.110;5.592;2022-10-16T07:22:40;4.45;;;1.85;;
62861;SDS011;48953;53.110;5.592;2022-10-16T07:25:06;5.55;;;2.60;;
62861;SDS011;48953;53.110;5.592;2022-10-16T07:27:32;8.32;;;2.00;;
62861;SDS011;48953;53.110;5.592;2022-10-16T07:29:58;4.05;;;1.65;;
62861;SDS011;48953;53.110;5.592;2022-10-16T07:32:23;3.28;;;1.85;;
62861;SDS011;48953;53.110;5.592;2022-10-16T07:34:50;4.63;;;2.10;;
62861;SDS011;48953;53.110;5.592;2022-10-16T07:37:16;4.13;;;2.03;;
62861;SDS011;48953;53.110;5.592;2022-10-16T07:39:42;11.85;;;3.65;;
62861;SDS011;48953;53.110;5.592;2022-10-16T07:42:07;5.70;;;2.30;;
62861;SDS011;48953;53.110;5.592;2022-10-16T07:44:33;10.05;;;2.60;;
62861;SDS011;48953;53.110;5.592;2022-10-16T07:46:58;5.43;;;2.17;;
62861;SDS011;48953;53.110;5.592;2022-10-16T07:49:24;6.30;;;2.40;;
62861;SDS011;48953;53.110;5.592;2022-10-16T07:51:49;5.40;;;2.20;;
62861;SDS011;48953;53.110;5.592;2022-10-16T07:54:15;5.50;;;1.77;;
62861;SDS011;48953;53.110;5.592;2022-10-16T07:56:41;5.57;;;1.83;;
62861;SDS011;48953;53.110;5.592;2022-10-16T07:59:06;6.07;;;1.73;;
62861;SDS011;48953;53.110;5.592;2022-10-16T08:01:32;5.38;;;1.98;;
62861;SDS011;48953;53.110;5.592;2022-10-16T08:03:57;7.93;;;2.08;;
62861;SDS011;48953;53.110;5.592;2022-10-16T08:06:23;7.43;;;2.30;;
62861;SDS011;48953;53.110;5.592;2022-10-16T08:08:49;4.03;;;1.95;;
62861;SDS011;48953;53.110;5.592;2022-10-16T08:11:14;4.97;;;2.08;;
62861;SDS011;48953;53.110;5.592;2022-10-16T08:13:40;7.45;;;1.98;;
62861;SDS011;48953;53.110;5.592;2022-10-16T08:16:06;9.65;;;2.20;;
62861;SDS011;48953;53.110;5.592;2022-10-16T08:18:36;5.18;;;1.80;;
62861;SDS011;48953;53.110;5.592;2022-10-16T08:21:03;9.77;;;2.13;;
62861;SDS011;48953;53.110;5.592;2022-10-16T08:23:30;5.80;;;1.80;;
62861;SDS011;48953;53.110;5.592;2022-10-16T08:25:56;6.18;;;2.22;;
62861;SDS011;48953;53.110;5.592;2022-10-16T08:28:26;3.63;;;1.85;;
62861;SDS011;48953;53.110;5.592;2022-10-16T08:30:52;5.45;;;1.52;;
62861;SDS011;48953;53.110;5.592;2022-10-16T08:33:17;2.40;;;1.40;;
62861;SDS011;48953;53.110;5.592;2022-10-16T08:35:49;6.75;;;1.92;;
62861;SDS011;48953;53.110;5.592;2022-10-16T08:38:16;4.85;;;1.40;;
62861;SDS011;48953;53.110;5.592;2022-10-16T08:40:42;4.50;;;1.50;;
62861;SDS011;48953;53.110;5.592;2022-10-16T08:48:47;3.53;;;1.15;;
62861;SDS011;48953;53.110;5.592;2022-10-16T08:51:19;6.28;;;1.38;;
62861;SDS011;48953;53.110;5.592;2022-10-16T08:53:52;7.18;;;2.20;;
62861;SDS011;48953;53.110;5.592;2022-10-16T08:56:21;3.67;;;1.40;;
62861;SDS011;48953;53.110;5.592;2022-10-16T08:58:47;4.25;;;1.42;;
62861;SDS011;48953;53.110;5.592;2022-10-16T09:01:15;5.05;;;1.25;;
62861;SDS011;48953;53.110;5.592;2022-10-16T09:12:22;8.52;;;1.70;;
62861;SDS011;48953;53.110;5.592;2022-10-16T09:20:09;12.65;;;2.00;;
62861;SDS011;48953;53.110;5.592;2022-10-16T09:22:37;7.78;;;1.70;;
62861;SDS011;48953;53.110;5.592;2022-10-16T09:25:17;8.35;;;1.83;;
62861;SDS011;48953;53.110;5.592;2022-10-16T09:27:47;7.45;;;1.77;;
62861;SDS011;48953;53.110;5.592;2022-10-16T09:30:17;7.85;;;2.15;;
62861;SDS011;48953;53.110;5.592;2022-10-16T09:32:47;9.43;;;2.00;;
62861;SDS011;48953;53.110;5.592;2022-10-16T09:35:16;11.25;;;1.85;;
62861;SDS011;48953;53.110;5.592;2022-10-16T09:37:48;8.73;;;1.60;;
62861;SDS011;48953;53.110;5.592;2022-10-16T09:40:26;8.18;;;1.58;;
62861;SDS011;48953;53.110;5.592;2022-10-16T09:43:03;10.75;;;1.70;;
62861;SDS011;48953;53.110;5.592;2022-10-16T09:45:55;12.88;;;1.60;;
62861;SDS011;48953;53.110;5.592;2022-10-16T09:48:47;5.40;;;1.38;;
62861;SDS011;48953;53.110;5.592;2022-10-16T09:51:19;12.05;;;1.52;;
62861;SDS011;48953;53.110;5.592;2022-10-16T09:53:47;9.18;;;1.50;;
62861;SDS011;48953;53.110;5.592;2022-10-16T09:56:24;10.55;;;2.20;;
62861;SDS011;48953;53.110;5.592;2022-10-16T09:58:52;8.70;;;1.67;;
62861;SDS011;48953;53.110;5.592;2022-10-16T10:01:20;9.27;;;1.85;;
62861;SDS011;48953;53.110;5.592;2022-10-16T10:03:47;11.20;;;1.75;;
62861;SDS011;48953;53.110;5.592;2022-10-16T10:06:18;15.52;;;1.95;;
62861;SDS011;48953;53.110;5.592;2022-10-16T10:08:54;10.90;;;1.55;;
62861;SDS011;48953;53.110;5.592;2022-10-16T10:14:08;12.50;;;2.05;;
62861;SDS011;48953;53.110;5.592;2022-10-16T10:16:43;14.15;;;1.55;;
62861;SDS011;48953;53.110;5.592;2022-10-16T10:19:19;14.10;;;2.08;;
62861;SDS011;48953;53.110;5.592;2022-10-16T10:21:46;9.80;;;2.00;;
62861;SDS011;48953;53.110;5.592;2022-10-16T10:24:13;12.23;;;1.80;;
62861;SDS011;48953;53.110;5.592;2022-10-16T10:26:41;10.00;;;1.88;;
62861;SDS011;48953;53.110;5.592;2022-10-16T10:35:11;11.68;;;2.20;;
62861;SDS011;48953;53.110;5.592;2022-10-16T10:46:09;7.28;;;1.30;;
62861;SDS011;48953;53.110;5.592;2022-10-16T10:51:53;9.27;;;2.13;;
62861;SDS011;48953;53.110;5.592;2022-10-16T11:01:14;6.72;;;1.50;;
62861;SDS011;48953;53.110;5.592;2022-10-16T11:06:33;9.75;;;1.63;;
62861;SDS011;48953;53.110;5.592;2022-10-16T11:09:17;8.07;;;1.52;;
62861;SDS011;48953;53.110;5.592;2022-10-16T11:12:01;5.03;;;1.33;;
62861;SDS011;48953;53.110;5.592;2022-10-16T11:20:14;7.40;;;1.20;;
62861;SDS011;48953;53.110;5.592;2022-10-16T11:22:48;13.13;;;1.40;;
62861;SDS011;48953;53.110;5.592;2022-10-16T11:25:19;11.02;;;1.65;;
62861;SDS011;48953;53.110;5.592;2022-10-16T11:30:41;8.70;;;1.15;;
62861;SDS011;48953;53.110;5.592;2022-10-16T11:33:32;8.32;;;1.60;;
62861;SDS011;48953;53.110;5.592;2022-10-16T11:36:22;10.02;;;2.00;;
62861;SDS011;48953;53.110;5.592;2022-10-16T11:50:22;9.50;;;1.42;;
62861;SDS011;48953;53.110;5.592;2022-10-16T11:53:09;5.72;;;1.10;;
62861;SDS011;48953;53.110;5.592;2022-10-16T11:55:40;7.20;;;1.20;;
62861;SDS011;48953;53.110;5.592;2022-10-16T11:58:22;8.77;;;1.33;;
62861;SDS011;48953;53.110;5.592;2022-10-16T12:03:48;4.95;;;1.15;;
62861;SDS011;48953;53.110;5.592;2022-10-16T12:06:40;8.45;;;1.83;;
62861;SDS011;48953;53.110;5.592;2022-10-16T12:09:18;6.47;;;0.93;;
62861;SDS011;48953;53.110;5.592;2022-10-16T12:11:49;7.45;;;1.38;;
62861;SDS011;48953;53.110;5.592;2022-10-16T12:19:27;9.90;;;1.45;;
62861;SDS011;48953;53.110;5.592;2022-10-16T12:21:58;6.95;;;1.20;;
62861;SDS011;48953;53.110;5.592;2022-10-16T12:26:53;11.77;;;1.35;;
62861;SDS011;48953;53.110;5.592;2022-10-16T12:29:38;8.90;;;1.40;;
62861;SDS011;48953;53.110;5.592;2022-10-16T12:32:06;9.38;;;1.50;;
62861;SDS011;48953;53.110;5.592;2022-10-16T12:34:53;7.95;;;1.15;;
62861;SDS011;48953;53.110;5.592;2022-10-16T12:37:21;9.57;;;1.52;;
62861;SDS011;48953;53.110;5.592;2022-10-16T12:39:51;9.20;;;1.50;;
62861;SDS011;48953;53.110;5.592;2022-10-16T12:44:53;9.40;;;1.13;;
62861;SDS011;48953;53.110;5.592;2022-10-16T12:49:56;6.97;;;1.33;;
62861;SDS011;48953;53.110;5.592;2022-10-16T12:52:27;8.23;;;1.40;;
62861;SDS011;48953;53.110;5.592;2022-10-16T12:54:58;9.50;;;1.45;;
62861;SDS011;48953;53.110;5.592;2022-10-16T13:00:24;9.65;;;1.60;;
62861;SDS011;48953;53.110;5.592;2022-10-16T13:03:01;12.25;;;1.65;;
62861;SDS011;48953;53.110;5.592;2022-10-16T13:16:55;6.72;;;1.20;;
62861;SDS011;48953;53.110;5.592;2022-10-16T13:19:48;9.93;;;1.33;;
62861;SDS011;48953;53.110;5.592;2022-10-16T13:25:42;10.40;;;1.35;;
62861;SDS011;48953;53.110;5.592;2022-10-16T13:28:37;9.43;;;1.42;;
62861;SDS011;48953;53.110;5.592;2022-10-16T13:31:04;8.63;;;1.42;;
62861;SDS011;48953;53.110;5.592;2022-10-16T13:33:41;4.47;;;0.82;;
62861;SDS011;48953;53.110;5.592;2022-10-16T13:36:18;8.18;;;1.02;;
62861;SDS011;48953;53.110;5.592;2022-10-16T13:42:06;7.53;;;1.23;;
62861;SDS011;48953;53.110;5.592;2022-10-16T13:44:42;5.95;;;0.93;;
62861;SDS011;48953;53.110;5.592;2022-10-16T13:47:23;5.70;;;1.20;;
62861;SDS011;48953;53.110;5.592;2022-10-16T13:50:00;7.90;;;1.52;;
62861;SDS011;48953;53.110;5.592;2022-10-16T13:52:40;10.00;;;1.58;;
62861;SDS011;48953;53.110;5.592;2022-10-16T13:55:13;4.47;;;0.82;;
62861;SDS011;48953;53.110;5.592;2022-10-16T13:57:40;7.53;;;1.20;;
62861;SDS011;48953;53.110;5.592;2022-10-16T14:00:28;6.47;;;1.02;;
62861;SDS011;48953;53.110;5.592;2022-10-16T14:03:13;9.77;;;1.13;;
62861;SDS011;48953;53.110;5.592;2022-10-16T14:05:43;8.63;;;1.40;;
62861;SDS011;48953;53.110;5.592;2022-10-16T14:08:19;5.45;;;1.00;;
62861;SDS011;48953;53.110;5.592;2022-10-16T14:10:49;8.90;;;1.33;;
62861;SDS011;48953;53.110;5.592;2022-10-16T14:13:18;7.28;;;1.42;;
62861;SDS011;48953;53.110;5.592;2022-10-16T14:15:49;6.43;;;0.95;;
62861;SDS011;48953;53.110;5.592;2022-10-16T14:18:26;9.82;;;1.40;;
62861;SDS011;48953;53.110;5.592;2022-10-16T14:20:52;11.68;;;1.20;;
62861;SDS011;48953;53.110;5.592;2022-10-16T14:23:19;12.32;;;1.50;;
62861;SDS011;48953;53.110;5.592;2022-10-16T14:25:45;7.40;;;1.40;;
62861;SDS011;48953;53.110;5.592;2022-10-16T14:28:18;6.07;;;0.88;;
62861;SDS011;48953;53.110;5.592;2022-10-16T14:30:53;9.60;;;1.95;;
62861;SDS011;48953;53.110;5.592;2022-10-16T14:33:21;6.47;;;1.10;;
62861;SDS011;48953;53.110;5.592;2022-10-16T14:38:36;10.98;;;1.30;;
62861;SDS011;48953;53.110;5.592;2022-10-16T14:41:04;11.00;;;1.83;;
62861;SDS011;48953;53.110;5.592;2022-10-16T14:43:34;9.65;;;1.05;;
62861;SDS011;48953;53.110;5.592;2022-10-16T14:46:02;12.60;;;1.63;;
62861;SDS011;48953;53.110;5.592;2022-10-16T14:48:31;12.75;;;1.60;;
62861;SDS011;48953;53.110;5.592;2022-10-16T14:50:57;8.63;;;1.15;;
62861;SDS011;48953;53.110;5.592;2022-10-16T14:53:23;10.77;;;1.52;;
62861;SDS011;48953;53.110;5.592;2022-10-16T14:59:29;10.48;;;1.58;;
62861;SDS011;48953;53.110;5.592;2022-10-16T15:01:58;11.30;;;2.10;;
62861;SDS011;48953;53.110;5.592;2022-10-16T15:04:24;9.43;;;1.60;;
62861;SDS011;48953;53.110;5.592;2022-10-16T15:06:49;8.43;;;1.38;;
62861;SDS011;48953;53.110;5.592;2022-10-16T15:09:15;10.02;;;1.77;;
62861;SDS011;48953;53.110;5.592;2022-10-16T15:11:41;10.63;;;1.38;;
62861;SDS011;48953;53.110;5.592;2022-10-16T15:14:09;9.38;;;1.52;;
62861;SDS011;48953;53.110;5.592;2022-10-16T15:16:37;7.60;;;2.40;;
62861;SDS011;48953;53.110;5.592;2022-10-16T15:19:03;16.33;;;5.45;;
62861;SDS011;48953;53.110;5.592;2022-10-16T15:21:30;12.70;;;2.00;;
62861;SDS011;48953;53.110;5.592;2022-10-16T15:23:57;16.40;;;4.28;;
62861;SDS011;48953;53.110;5.592;2022-10-16T15:26:24;15.85;;;3.60;;
62861;SDS011;48953;53.110;5.592;2022-10-16T15:28:50;23.08;;;4.80;;
62861;SDS011;48953;53.110;5.592;2022-10-16T15:31:16;17.40;;;6.20;;
62861;SDS011;48953;53.110;5.592;2022-10-16T15:33:42;17.75;;;6.82;;
62861;SDS011;48953;53.110;5.592;2022-10-16T15:36:07;13.85;;;5.47;;
62861;SDS011;48953;53.110;5.592;2022-10-16T15:38:33;13.98;;;3.40;;
62861;SDS011;48953;53.110;5.592;2022-10-16T15:40:59;14.50;;;2.63;;
62861;SDS011;48953;53.110;5.592;2022-10-16T15:43:24;12.93;;;2.75;;
62861;SDS011;48953;53.110;5.592;2022-10-16T15:46:00;10.32;;;2.90;;
62861;SDS011;48953;53.110;5.592;2022-10-16T15:48:31;11.55;;;2.20;;
62861;SDS011;48953;53.110;5.592;2022-10-16T15:50:57;10.80;;;2.00;;
62861;SDS011;48953;53.110;5.592;2022-10-16T15:53:24;11.40;;;2.40;;
62861;SDS011;48953;53.110;5.592;2022-10-16T15:55:50;11.07;;;3.10;;
62861;SDS011;48953;53.110;5.592;2022-10-16T15:58:15;19.55;;;4.10;;
62861;SDS011;48953;53.110;5.592;2022-10-16T16:00:41;11.75;;;3.67;;
62861;SDS011;48953;53.110;5.592;2022-10-16T16:03:07;15.77;;;4.30;;
62861;SDS011;48953;53.110;5.592;2022-10-16T16:05:32;16.10;;;5.00;;
62861;SDS011;48953;53.110;5.592;2022-10-16T16:08:00;12.30;;;5.00;;
62861;SDS011;48953;53.110;5.592;2022-10-16T16:10:25;18.60;;;3.80;;
62861;SDS011;48953;53.110;5.592;2022-10-16T16:12:51;10.27;;;3.15;;
62861;SDS011;48953;53.110;5.592;2022-10-16T16:15:19;11.77;;;3.03;;
62861;SDS011;48953;53.110;5.592;2022-10-16T16:17:46;10.20;;;1.98;;
62861;SDS011;48953;53.110;5.592;2022-10-16T16:20:12;10.70;;;2.05;;
62861;SDS011;48953;53.110;5.592;2022-10-16T16:22:37;10.82;;;1.98;;
62861;SDS011;48953;53.110;5.592;2022-10-16T16:25:03;10.10;;;2.45;;
62861;SDS011;48953;53.110;5.592;2022-10-16T16:27:29;10.07;;;2.20;;
62861;SDS011;48953;53.110;5.592;2022-10-16T16:29:58;13.57;;;2.60;;
62861;SDS011;48953;53.110;5.592;2022-10-16T16:32:24;10.90;;;2.15;;
62861;SDS011;48953;53.110;5.592;2022-10-16T16:34:50;8.02;;;1.80;;
62861;SDS011;48953;53.110;5.592;2022-10-16T16:37:15;11.88;;;2.20;;
62861;SDS011;48953;53.110;5.592;2022-10-16T16:39:41;12.77;;;1.90;;
62861;SDS011;48953;53.110;5.592;2022-10-16T16:42:07;9.40;;;2.47;;
62861;SDS011;48953;53.110;5.592;2022-10-16T16:44:32;10.75;;;1.92;;
62861;SDS011;48953;53.110;5.592;2022-10-16T16:47:01;15.25;;;2.22;;
62861;SDS011;48953;53.110;5.592;2022-10-16T16:49:27;11.00;;;1.88;;
62861;SDS011;48953;53.110;5.592;2022-10-16T16:51:52;11.73;;;1.85;;
62861;SDS011;48953;53.110;5.592;2022-10-16T16:54:19;10.13;;;1.48;;
62861;SDS011;48953;53.110;5.592;2022-10-16T16:56:44;9.05;;;1.67;;
62861;SDS011;48953;53.110;5.592;2022-10-16T16:59:11;7.03;;;1.30;;
62861;SDS011;48953;53.110;5.592;2022-10-16T17:01:43;12.35;;;1.98;;
62861;SDS011;48953;53.110;5.592;2022-10-16T17:04:08;7.45;;;1.20;;
62861;SDS011;48953;53.110;5.592;2022-10-16T17:06:35;10.35;;;1.60;;
62861;SDS011;48953;53.110;5.592;2022-10-16T17:09:01;8.25;;;2.15;;
62861;SDS011;48953;53.110;5.592;2022-10-16T17:11:29;7.85;;;1.48;;
62861;SDS011;48953;53.110;5.592;2022-10-16T17:13:55;11.75;;;2.50;;
62861;SDS011;48953;53.110;5.592;2022-10-16T17:16:24;17.23;;;3.28;;
62861;SDS011;48953;53.110;5.592;2022-10-16T17:18:52;11.02;;;3.17;;
62861;SDS011;48953;53.110;5.592;2022-10-16T17:21:18;14.57;;;3.28;;
62861;SDS011;48953;53.110;5.592;2022-10-16T17:23:44;9.10;;;3.20;;
62861;SDS011;48953;53.110;5.592;2022-10-16T17:26:13;10.57;;;2.78;;
62861;SDS011;48953;53.110;5.592;2022-10-16T17:28:40;12.15;;;3.40;;